sensor_id;sensor_type;location;lat;lon;timestamp;temperature;humidity
78366;HTU21D;67641;59.864;30.464;2023-05-07T00:02:10;14.75;68.01
78366;HTU21D;67641;59.864;30.464;2023-05-07T00:04:37;14.75;67.50
78366;HTU21D;67641;59.864;30.464;2023-05-07T00:07:05;14.72;67.89
78366;HTU21D;67641;59.864;30.464;2023-05-07T00:09:32;14.72;68.07
78366;HTU21D;67641;59.864;30.464;2023-05-07T00:11:59;14.73;67.91
78366;HTU21D;67641;59.864;30.464;2023-05-07T00:14:26;14.80;67.59
78366;HTU21D;67641;59.864;30.464;2023-05-07T00:16:53;14.77;67.17
78366;HTU21D;67641;59.864;30.464;2023-05-07T00:19:46;14.64;67.32
78366;HTU21D;67641;59.864;30.464;2023-05-07T00:22:13;14.65;67.54
78366;HTU21D;67641;59.864;30.464;2023-05-07T00:24:39;14.60;67.98
78366;HTU21D;67641;59.864;30.464;2023-05-07T00:27:06;14.65;67.72
78366;HTU21D;67641;59.864;30.464;2023-05-07T00:29:33;14.67;67.27
78366;HTU21D;67641;59.864;30.464;2023-05-07T00:32:00;14.65;67.18
78366;HTU21D;67641;59.864;30.464;2023-05-07T00:34:27;14.60;66.95
78366;HTU21D;67641;59.864;30.464;2023-05-07T00:36:54;14.56;67.49
78366;HTU21D;67641;59.864;30.464;2023-05-07T00:39:21;14.51;67.23
78366;HTU21D;67641;59.864;30.464;2023-05-07T00:42:58;14.60;67.37
78366;HTU21D;67641;59.864;30.464;2023-05-07T00:45:27;14.60;67.36
78366;HTU21D;67641;59.864;30.464;2023-05-07T00:47:56;14.67;67.22
78366;HTU21D;67641;59.864;30.464;2023-05-07T00:50:24;14.64;66.79
78366;HTU21D;67641;59.864;30.464;2023-05-07T00:52:53;14.52;67.14
78366;HTU21D;67641;59.864;30.464;2023-05-07T00:55:24;14.47;67.78
78366;HTU21D;67641;59.864;30.464;2023-05-07T00:57:51;14.41;68.00
78366;HTU21D;67641;59.864;30.464;2023-05-07T01:00:18;14.38;67.75
78366;HTU21D;67641;59.864;30.464;2023-05-07T01:05:57;14.41;67.94
78366;HTU21D;67641;59.864;30.464;2023-05-07T01:08:26;14.45;67.52
78366;HTU21D;67641;59.864;30.464;2023-05-07T01:10:57;14.52;67.34
78366;HTU21D;67641;59.864;30.464;2023-05-07T01:13:24;14.55;67.12
78366;HTU21D;67641;59.864;30.464;2023-05-07T01:15:51;14.47;67.51
78366;HTU21D;67641;59.864;30.464;2023-05-07T01:18:18;14.42;67.30
78366;HTU21D;67641;59.864;30.464;2023-05-07T01:20:45;14.39;67.96
78366;HTU21D;67641;59.864;30.464;2023-05-07T01:23:12;14.44;67.58
78366;HTU21D;67641;59.864;30.464;2023-05-07T01:25:39;14.50;67.22
78366;HTU21D;67641;59.864;30.464;2023-05-07T01:30:13;14.64;66.41
78366;HTU21D;67641;59.864;30.464;2023-05-07T01:33:11;14.62;66.34
78366;HTU21D;67641;59.864;30.464;2023-05-07T01:35:45;14.56;66.44
78366;HTU21D;67641;59.864;30.464;2023-05-07T01:38:15;14.53;66.81
78366;HTU21D;67641;59.864;30.464;2023-05-07T01:40:41;14.50;67.20
78366;HTU21D;67641;59.864;30.464;2023-05-07T01:43:09;14.44;66.79
78366;HTU21D;67641;59.864;30.464;2023-05-07T01:45:38;14.48;66.55
78366;HTU21D;67641;59.864;30.464;2023-05-07T01:48:06;14.54;66.30
78366;HTU21D;67641;59.864;30.464;2023-05-07T01:53:39;14.51;65.92
78366;HTU21D;67641;59.864;30.464;2023-05-07T01:56:07;14.53;66.43
78366;HTU21D;67641;59.864;30.464;2023-05-07T01:58:34;14.51;66.53
78366;HTU21D;67641;59.864;30.464;2023-05-07T02:01:02;14.49;66.36
78366;HTU21D;67641;59.864;30.464;2023-05-07T02:03:28;14.52;66.22
78366;HTU21D;67641;59.864;30.464;2023-05-07T02:05:56;14.59;66.17
78366;HTU21D;67641;59.864;30.464;2023-05-07T02:08:23;14.64;66.07
78366;HTU21D;67641;59.864;30.464;2023-05-07T02:10:50;14.56;66.20
78366;HTU21D;67641;59.864;30.464;2023-05-07T02:15:58;14.51;66.74
78366;HTU21D;67641;59.864;30.464;2023-05-07T02:18:25;14.52;66.56
78366;HTU21D;67641;59.864;30.464;2023-05-07T02:20:53;14.50;66.30
78366;HTU21D;67641;59.864;30.464;2023-05-07T02:23:20;14.50;66.46
78366;HTU21D;67641;59.864;30.464;2023-05-07T02:25:47;14.45;66.61
78366;HTU21D;67641;59.864;30.464;2023-05-07T02:28:14;14.44;66.39
78366;HTU21D;67641;59.864;30.464;2023-05-07T02:30:41;14.44;66.85
78366;HTU21D;67641;59.864;30.464;2023-05-07T02:33:08;14.37;67.20
78366;HTU21D;67641;59.864;30.464;2023-05-07T02:35:35;14.41;67.13
78366;HTU21D;67641;59.864;30.464;2023-05-07T02:40:26;14.42;67.27
78366;HTU21D;67641;59.864;30.464;2023-05-07T02:42:53;14.49;67.27
78366;HTU21D;67641;59.864;30.464;2023-05-07T02:45:20;14.52;67.10
78366;HTU21D;67641;59.864;30.464;2023-05-07T02:47:48;14.52;67.01
78366;HTU21D;67641;59.864;30.464;2023-05-07T02:50:16;14.52;67.48
78366;HTU21D;67641;59.864;30.464;2023-05-07T02:52:43;14.56;67.33
78366;HTU21D;67641;59.864;30.464;2023-05-07T02:55:10;14.60;67.52
78366;HTU21D;67641;59.864;30.464;2023-05-07T02:57:37;14.60;67.61
78366;HTU21D;67641;59.864;30.464;2023-05-07T03:03:15;14.69;67.26
78366;HTU21D;67641;59.864;30.464;2023-05-07T03:05:41;14.74;67.66
78366;HTU21D;67641;59.864;30.464;2023-05-07T03:08:09;14.79;67.32
78366;HTU21D;67641;59.864;30.464;2023-05-07T03:10:37;14.83;67.85
78366;HTU21D;67641;59.864;30.464;2023-05-07T03:13:04;14.87;68.15
78366;HTU21D;67641;59.864;30.464;2023-05-07T03:15:31;14.87;68.03
78366;HTU21D;67641;59.864;30.464;2023-05-07T03:17:58;14.88;67.89
78366;HTU21D;67641;59.864;30.464;2023-05-07T03:20:25;14.92;67.88
78366;HTU21D;67641;59.864;30.464;2023-05-07T03:22:52;14.99;68.07
78366;HTU21D;67641;59.864;30.464;2023-05-07T03:27:28;15.12;67.84
78366;HTU21D;67641;59.864;30.464;2023-05-07T03:29:58;15.12;67.36
78366;HTU21D;67641;59.864;30.464;2023-05-07T03:32:25;15.23;67.20
78366;HTU21D;67641;59.864;30.464;2023-05-07T03:34:52;15.28;68.59
78366;HTU21D;67641;59.864;30.464;2023-05-07T03:37:19;15.39;68.04
78366;HTU21D;67641;59.864;30.464;2023-05-07T03:39:48;15.42;67.98
78366;HTU21D;67641;59.864;30.464;2023-05-07T03:42:15;15.43;67.73
78366;HTU21D;67641;59.864;30.464;2023-05-07T03:44:42;15.40;67.87
78366;HTU21D;67641;59.864;30.464;2023-05-07T03:47:10;15.45;68.06
78366;HTU21D;67641;59.864;30.464;2023-05-07T03:49:55;15.53;68.07
78366;HTU21D;67641;59.864;30.464;2023-05-07T03:52:22;15.61;67.62
78366;HTU21D;67641;59.864;30.464;2023-05-07T03:54:53;15.71;67.18
78366;HTU21D;67641;59.864;30.464;2023-05-07T03:57:20;15.70;66.62
78366;HTU21D;67641;59.864;30.464;2023-05-07T03:59:48;15.80;66.40
78366;HTU21D;67641;59.864;30.464;2023-05-07T04:02:15;15.92;65.72
78366;HTU21D;67641;59.864;30.464;2023-05-07T04:04:43;16.03;65.32
78366;HTU21D;67641;59.864;30.464;2023-05-07T04:07:10;16.07;65.44
78366;HTU21D;67641;59.864;30.464;2023-05-07T04:09:38;16.14;65.82
78366;HTU21D;67641;59.864;30.464;2023-05-07T04:13:42;16.27;65.45
78366;HTU21D;67641;59.864;30.464;2023-05-07T04:16:09;16.22;65.53
78366;HTU21D;67641;59.864;30.464;2023-05-07T04:18:36;16.25;64.86
78366;HTU21D;67641;59.864;30.464;2023-05-07T04:21:02;16.22;64.69
78366;HTU21D;67641;59.864;30.464;2023-05-07T04:23:29;16.26;64.47
78366;HTU21D;67641;59.864;30.464;2023-05-07T04:25:57;16.25;64.00
78366;HTU21D;67641;59.864;30.464;2023-05-07T04:28:24;16.26;64.74
78366;HTU21D;67641;59.864;30.464;2023-05-07T04:30:52;16.32;64.18
78366;HTU21D;67641;59.864;30.464;2023-05-07T04:33:19;16.34;63.76
78366;HTU21D;67641;59.864;30.464;2023-05-07T04:37:51;16.40;64.09
78366;HTU21D;67641;59.864;30.464;2023-05-07T04:40:18;16.43;64.08
78366;HTU21D;67641;59.864;30.464;2023-05-07T04:42:45;16.45;64.67
78366;HTU21D;67641;59.864;30.464;2023-05-07T04:45:12;16.51;65.15
78366;HTU21D;67641;59.864;30.464;2023-05-07T04:47:40;16.47;65.98
78366;HTU21D;67641;59.864;30.464;2023-05-07T04:50:08;16.52;66.38
78366;HTU21D;67641;59.864;30.464;2023-05-07T04:52:35;16.48;66.17
78366;HTU21D;67641;59.864;30.464;2023-05-07T04:55:02;16.49;66.52
78366;HTU21D;67641;59.864;30.464;2023-05-07T04:57:29;16.43;65.91
78366;HTU21D;67641;59.864;30.464;2023-05-07T05:01:48;16.46;65.54
78366;HTU21D;67641;59.864;30.464;2023-05-07T05:04:15;16.46;66.20
78366;HTU21D;67641;59.864;30.464;2023-05-07T05:06:42;16.46;66.66
78366;HTU21D;67641;59.864;30.464;2023-05-07T05:09:09;16.44;67.23
78366;HTU21D;67641;59.864;30.464;2023-05-07T05:11:35;16.47;67.03
78366;HTU21D;67641;59.864;30.464;2023-05-07T05:14:05;16.45;67.26
78366;HTU21D;67641;59.864;30.464;2023-05-07T05:16:34;16.45;66.78
78366;HTU21D;67641;59.864;30.464;2023-05-07T05:19:03;16.39;65.77
78366;HTU21D;67641;59.864;30.464;2023-05-07T05:21:32;16.36;66.15
78366;HTU21D;67641;59.864;30.464;2023-05-07T05:25:32;16.41;65.25
78366;HTU21D;67641;59.864;30.464;2023-05-07T05:28:01;16.40;64.36
78366;HTU21D;67641;59.864;30.464;2023-05-07T05:30:31;16.43;64.79
78366;HTU21D;67641;59.864;30.464;2023-05-07T05:33:01;16.44;65.12
78366;HTU21D;67641;59.864;30.464;2023-05-07T05:35:30;16.45;65.46
78366;HTU21D;67641;59.864;30.464;2023-05-07T05:38:00;16.37;65.28
78366;HTU21D;67641;59.864;30.464;2023-05-07T05:40:30;16.42;64.76
78366;HTU21D;67641;59.864;30.464;2023-05-07T05:42:59;16.36;65.62
78366;HTU21D;67641;59.864;30.464;2023-05-07T05:45:28;16.34;65.08
78366;HTU21D;67641;59.864;30.464;2023-05-07T05:48:24;16.30;65.93
78366;HTU21D;67641;59.864;30.464;2023-05-07T05:50:55;16.33;66.19
78366;HTU21D;67641;59.864;30.464;2023-05-07T05:53:24;16.35;66.76
78366;HTU21D;67641;59.864;30.464;2023-05-07T05:55:53;16.37;66.27
78366;HTU21D;67641;59.864;30.464;2023-05-07T05:58:22;16.46;66.26
78366;HTU21D;67641;59.864;30.464;2023-05-07T06:00:51;16.46;66.20
78366;HTU21D;67641;59.864;30.464;2023-05-07T06:03:21;16.45;66.37
78366;HTU21D;67641;59.864;30.464;2023-05-07T06:05:50;16.44;66.22
78366;HTU21D;67641;59.864;30.464;2023-05-07T06:08:20;16.46;66.24
78366;HTU21D;67641;59.864;30.464;2023-05-07T06:13:06;16.75;66.27
78366;HTU21D;67641;59.864;30.464;2023-05-07T06:15:36;16.77;65.94
78366;HTU21D;67641;59.864;30.464;2023-05-07T06:18:06;16.81;65.91
78366;HTU21D;67641;59.864;30.464;2023-05-07T06:20:35;16.91;66.49
78366;HTU21D;67641;59.864;30.464;2023-05-07T06:23:07;17.01;65.72
78366;HTU21D;67641;59.864;30.464;2023-05-07T06:25:36;17.04;66.35
78366;HTU21D;67641;59.864;30.464;2023-05-07T06:28:06;17.05;65.59
78366;HTU21D;67641;59.864;30.464;2023-05-07T06:30:37;17.01;65.27
78366;HTU21D;67641;59.864;30.464;2023-05-07T06:36:04;16.93;65.08
78366;HTU21D;67641;59.864;30.464;2023-05-07T06:38:33;16.93;65.37
78366;HTU21D;67641;59.864;30.464;2023-05-07T06:41:02;17.02;64.63
78366;HTU21D;67641;59.864;30.464;2023-05-07T06:43:33;17.08;64.98
78366;HTU21D;67641;59.864;30.464;2023-05-07T06:46:02;17.10;64.50
78366;HTU21D;67641;59.864;30.464;2023-05-07T06:48:32;17.17;64.85
78366;HTU21D;67641;59.864;30.464;2023-05-07T06:51:03;17.25;64.76
78366;HTU21D;67641;59.864;30.464;2023-05-07T06:53:33;17.32;64.24
78366;HTU21D;67641;59.864;30.464;2023-05-07T06:56:03;17.40;63.89
78366;HTU21D;67641;59.864;30.464;2023-05-07T06:59:04;17.47;64.04
78366;HTU21D;67641;59.864;30.464;2023-05-07T07:01:33;17.49;63.95
78366;HTU21D;67641;59.864;30.464;2023-05-07T07:04:03;17.47;63.73
78366;HTU21D;67641;59.864;30.464;2023-05-07T07:06:32;17.41;64.33
78366;HTU21D;67641;59.864;30.464;2023-05-07T07:09:01;17.41;64.71
78366;HTU21D;67641;59.864;30.464;2023-05-07T07:11:30;17.47;64.83
78366;HTU21D;67641;59.864;30.464;2023-05-07T07:13:59;17.52;64.25
78366;HTU21D;67641;59.864;30.464;2023-05-07T07:16:29;17.58;64.56
78366;HTU21D;67641;59.864;30.464;2023-05-07T07:18:58;17.74;64.08
78366;HTU21D;67641;59.864;30.464;2023-05-07T07:23:32;17.93;62.96
78366;HTU21D;67641;59.864;30.464;2023-05-07T07:26:01;18.03;63.08
78366;HTU21D;67641;59.864;30.464;2023-05-07T07:28:30;18.04;62.21
78366;HTU21D;67641;59.864;30.464;2023-05-07T07:30:59;18.03;62.25
78366;HTU21D;67641;59.864;30.464;2023-05-07T07:33:28;18.05;62.28
78366;HTU21D;67641;59.864;30.464;2023-05-07T07:35:57;17.95;62.08
78366;HTU21D;67641;59.864;30.464;2023-05-07T07:38:26;17.91;62.36
78366;HTU21D;67641;59.864;30.464;2023-05-07T07:40:56;17.92;62.12
78366;HTU21D;67641;59.864;30.464;2023-05-07T07:43:28;17.95;62.34
78366;HTU21D;67641;59.864;30.464;2023-05-07T07:48:36;18.02;61.89
78366;HTU21D;67641;59.864;30.464;2023-05-07T07:51:06;18.05;62.21
78366;HTU21D;67641;59.864;30.464;2023-05-07T07:53:36;18.05;62.09
78366;HTU21D;67641;59.864;30.464;2023-05-07T07:56:05;18.04;63.33
78366;HTU21D;67641;59.864;30.464;2023-05-07T07:58:35;17.87;64.24
78366;HTU21D;67641;59.864;30.464;2023-05-07T08:01:06;17.83;64.64
78366;HTU21D;67641;59.864;30.464;2023-05-07T08:03:35;17.77;64.69
78366;HTU21D;67641;59.864;30.464;2023-05-07T08:06:04;17.75;64.82
78366;HTU21D;67641;59.864;30.464;2023-05-07T08:08:33;17.64;65.27
78366;HTU21D;67641;59.864;30.464;2023-05-07T08:13:45;17.83;64.12
78366;HTU21D;67641;59.864;30.464;2023-05-07T08:16:14;17.82;64.27
78366;HTU21D;67641;59.864;30.464;2023-05-07T08:18:43;17.77;65.66
78366;HTU21D;67641;59.864;30.464;2023-05-07T08:21:13;17.75;65.95
78366;HTU21D;67641;59.864;30.464;2023-05-07T08:23:43;17.72;65.77
78366;HTU21D;67641;59.864;30.464;2023-05-07T08:26:12;17.61;66.59
78366;HTU21D;67641;59.864;30.464;2023-05-07T08:28:41;17.51;66.88
78366;HTU21D;67641;59.864;30.464;2023-05-07T08:31:11;17.46;66.07
78366;HTU21D;67641;59.864;30.464;2023-05-07T08:33:39;17.37;66.35
78366;HTU21D;67641;59.864;30.464;2023-05-07T08:38:13;17.33;67.05
78366;HTU21D;67641;59.864;30.464;2023-05-07T08:40:43;17.32;67.59
78366;HTU21D;67641;59.864;30.464;2023-05-07T08:43:15;17.31;68.35
78366;HTU21D;67641;59.864;30.464;2023-05-07T08:45:46;17.26;68.91
78366;HTU21D;67641;59.864;30.464;2023-05-07T08:48:17;17.24;69.40
78366;HTU21D;67641;59.864;30.464;2023-05-07T08:50:51;17.13;69.38
78366;HTU21D;67641;59.864;30.464;2023-05-07T08:53:21;17.09;70.10
78366;HTU21D;67641;59.864;30.464;2023-05-07T08:55:50;17.09;70.30
78366;HTU21D;67641;59.864;30.464;2023-05-07T09:00:59;16.84;72.52
78366;HTU21D;67641;59.864;30.464;2023-05-07T09:03:30;16.71;73.50
78366;HTU21D;67641;59.864;30.464;2023-05-07T09:05:57;16.56;73.54
78366;HTU21D;67641;59.864;30.464;2023-05-07T09:08:27;16.48;74.40
78366;HTU21D;67641;59.864;30.464;2023-05-07T09:10:54;16.42;74.35
78366;HTU21D;67641;59.864;30.464;2023-05-07T09:13:21;16.39;74.44
78366;HTU21D;67641;59.864;30.464;2023-05-07T09:15:48;16.37;74.75
78366;HTU21D;67641;59.864;30.464;2023-05-07T09:18:15;16.42;74.59
78366;HTU21D;67641;59.864;30.464;2023-05-07T09:20:42;16.31;74.99
78366;HTU21D;67641;59.864;30.464;2023-05-07T09:25:11;16.14;75.18
78366;HTU21D;67641;59.864;30.464;2023-05-07T09:27:38;16.12;75.63
78366;HTU21D;67641;59.864;30.464;2023-05-07T09:30:06;16.11;76.07
78366;HTU21D;67641;59.864;30.464;2023-05-07T09:32:37;16.05;77.16
78366;HTU21D;67641;59.864;30.464;2023-05-07T09:35:14;16.04;78.63
78366;HTU21D;67641;59.864;30.464;2023-05-07T09:37:42;16.12;78.13
78366;HTU21D;67641;59.864;30.464;2023-05-07T09:40:23;16.06;78.78
78366;HTU21D;67641;59.864;30.464;2023-05-07T09:42:51;16.01;79.56
78366;HTU21D;67641;59.864;30.464;2023-05-07T09:47:57;15.86;81.38
78366;HTU21D;67641;59.864;30.464;2023-05-07T09:50:32;15.76;81.87
78366;HTU21D;67641;59.864;30.464;2023-05-07T09:53:04;15.73;83.45
78366;HTU21D;67641;59.864;30.464;2023-05-07T09:55:31;15.73;82.98
78366;HTU21D;67641;59.864;30.464;2023-05-07T09:57:59;15.77;82.92
78366;HTU21D;67641;59.864;30.464;2023-05-07T10:00:29;15.78;83.17
78366;HTU21D;67641;59.864;30.464;2023-05-07T10:02:57;15.78;82.61
78366;HTU21D;67641;59.864;30.464;2023-05-07T10:05:25;15.86;83.78
78366;HTU21D;67641;59.864;30.464;2023-05-07T10:07:53;15.96;82.46
78366;HTU21D;67641;59.864;30.464;2023-05-07T10:10:40;16.00;82.56
78366;HTU21D;67641;59.864;30.464;2023-05-07T10:13:08;16.05;80.57
78366;HTU21D;67641;59.864;30.464;2023-05-07T10:15:40;16.07;81.88
78366;HTU21D;67641;59.864;30.464;2023-05-07T10:18:08;16.15;81.49
78366;HTU21D;67641;59.864;30.464;2023-05-07T10:20:36;16.21;81.65
78366;HTU21D;67641;59.864;30.464;2023-05-07T10:23:04;16.27;80.57
78366;HTU21D;67641;59.864;30.464;2023-05-07T10:25:32;16.29;79.95
78366;HTU21D;67641;59.864;30.464;2023-05-07T10:28:04;16.32;79.79
78366;HTU21D;67641;59.864;30.464;2023-05-07T10:33:27;16.48;79.17
78366;HTU21D;67641;59.864;30.464;2023-05-07T10:35:58;16.56;78.61
78366;HTU21D;67641;59.864;30.464;2023-05-07T10:38:27;16.59;77.68
78366;HTU21D;67641;59.864;30.464;2023-05-07T10:40:55;16.67;77.51
78366;HTU21D;67641;59.864;30.464;2023-05-07T10:43:22;16.69;77.27
78366;HTU21D;67641;59.864;30.464;2023-05-07T10:46:23;16.73;78.28
78366;HTU21D;67641;59.864;30.464;2023-05-07T10:51:31;16.76;78.35
78366;HTU21D;67641;59.864;30.464;2023-05-07T10:57:33;16.93;78.99
78366;HTU21D;67641;59.864;30.464;2023-05-07T11:05:33;17.19;77.73
78366;HTU21D;67641;59.864;30.464;2023-05-07T11:08:03;17.31;78.16
78366;HTU21D;67641;59.864;30.464;2023-05-07T11:10:59;17.39;77.23
78366;HTU21D;67641;59.864;30.464;2023-05-07T11:13:44;17.46;78.88
78366;HTU21D;67641;59.864;30.464;2023-05-07T11:16:25;17.45;78.19
78366;HTU21D;67641;59.864;30.464;2023-05-07T11:20:58;17.43;77.31
78366;HTU21D;67641;59.864;30.464;2023-05-07T11:26:08;17.36;76.15
78366;HTU21D;67641;59.864;30.464;2023-05-07T11:28:41;17.30;77.76
78366;HTU21D;67641;59.864;30.464;2023-05-07T11:31:12;17.25;77.02
78366;HTU21D;67641;59.864;30.464;2023-05-07T11:33:39;17.25;76.92
78366;HTU21D;67641;59.864;30.464;2023-05-07T11:36:08;17.24;76.46
78366;HTU21D;67641;59.864;30.464;2023-05-07T11:38:36;17.21;76.18
78366;HTU21D;67641;59.864;30.464;2023-05-07T11:41:03;17.16;76.99
78366;HTU21D;67641;59.864;30.464;2023-05-07T11:43:59;17.09;77.66
78366;HTU21D;67641;59.864;30.464;2023-05-07T11:46:29;17.13;78.76
78366;HTU21D;67641;59.864;30.464;2023-05-07T11:48:56;17.18;78.03
78366;HTU21D;67641;59.864;30.464;2023-05-07T11:51:25;17.18;77.56
78366;HTU21D;67641;59.864;30.464;2023-05-07T11:53:53;17.14;77.20
78366;HTU21D;67641;59.864;30.464;2023-05-07T11:56:23;17.14;77.73
78366;HTU21D;67641;59.864;30.464;2023-05-07T11:58:49;17.10;79.71
78366;HTU21D;67641;59.864;30.464;2023-05-07T12:01:18;17.14;79.88
78366;HTU21D;67641;59.864;30.464;2023-05-07T12:03:46;17.18;79.72
78366;HTU21D;67641;59.864;30.464;2023-05-07T12:06:45;17.24;78.11
78366;HTU21D;67641;59.864;30.464;2023-05-07T12:09:11;17.29;78.83
78366;HTU21D;67641;59.864;30.464;2023-05-07T12:11:39;17.32;80.05
78366;HTU21D;67641;59.864;30.464;2023-05-07T12:14:06;17.33;79.35
78366;HTU21D;67641;59.864;30.464;2023-05-07T12:16:33;17.36;81.18
78366;HTU21D;67641;59.864;30.464;2023-05-07T12:19:01;17.39;79.10
78366;HTU21D;67641;59.864;30.464;2023-05-07T12:21:29;17.43;80.43
78366;HTU21D;67641;59.864;30.464;2023-05-07T12:23:58;17.43;79.80
78366;HTU21D;67641;59.864;30.464;2023-05-07T12:29:27;17.56;77.50
78366;HTU21D;67641;59.864;30.464;2023-05-07T12:31:54;17.69;78.86
78366;HTU21D;67641;59.864;30.464;2023-05-07T12:34:22;17.76;78.92
78366;HTU21D;67641;59.864;30.464;2023-05-07T12:36:49;17.84;79.87
78366;HTU21D;67641;59.864;30.464;2023-05-07T12:39:16;17.87;80.01
78366;HTU21D;67641;59.864;30.464;2023-05-07T12:41:57;17.94;78.69
78366;HTU21D;67641;59.864;30.464;2023-05-07T12:44:46;17.96;77.61
78366;HTU21D;67641;59.864;30.464;2023-05-07T12:47:15;18.04;77.36
78366;HTU21D;67641;59.864;30.464;2023-05-07T12:52:11;18.12;76.59
78366;HTU21D;67641;59.864;30.464;2023-05-07T12:54:39;18.17;77.05
78366;HTU21D;67641;59.864;30.464;2023-05-07T12:57:09;18.11;75.75
78366;HTU21D;67641;59.864;30.464;2023-05-07T12:59:39;18.06;75.64
78366;HTU21D;67641;59.864;30.464;2023-05-07T13:02:07;17.98;76.45
78366;HTU21D;67641;59.864;30.464;2023-05-07T13:04:35;17.90;76.36
78366;HTU21D;67641;59.864;30.464;2023-05-07T13:07:02;17.89;76.51
78366;HTU21D;67641;59.864;30.464;2023-05-07T13:09:29;17.83;75.87
78366;HTU21D;67641;59.864;30.464;2023-05-07T13:14:59;17.83;77.56
78366;HTU21D;67641;59.864;30.464;2023-05-07T13:17:26;17.82;78.34
78366;HTU21D;67641;59.864;30.464;2023-05-07T13:19:54;17.78;78.56
78366;HTU21D;67641;59.864;30.464;2023-05-07T13:22:21;17.73;78.48
78366;HTU21D;67641;59.864;30.464;2023-05-07T13:24:48;17.64;78.34
78366;HTU21D;67641;59.864;30.464;2023-05-07T13:27:19;17.62;79.86
78366;HTU21D;67641;59.864;30.464;2023-05-07T13:29:47;17.63;78.95
78366;HTU21D;67641;59.864;30.464;2023-05-07T13:32:14;17.59;78.68
78366;HTU21D;67641;59.864;30.464;2023-05-07T13:34:41;17.54;79.83
78366;HTU21D;67641;59.864;30.464;2023-05-07T13:39:41;17.44;78.71
78366;HTU21D;67641;59.864;30.464;2023-05-07T13:42:11;17.28;80.52
78366;HTU21D;67641;59.864;30.464;2023-05-07T13:44:38;17.18;81.88
78366;HTU21D;67641;59.864;30.464;2023-05-07T13:47:05;17.09;82.07
78366;HTU21D;67641;59.864;30.464;2023-05-07T13:49:33;17.06;82.73
78366;HTU21D;67641;59.864;30.464;2023-05-07T13:52:01;16.87;83.51
78366;HTU21D;67641;59.864;30.464;2023-05-07T13:54:28;16.69;84.10
78366;HTU21D;67641;59.864;30.464;2023-05-07T13:56:55;16.60;84.81
78366;HTU21D;67641;59.864;30.464;2023-05-07T14:02:15;16.41;84.75
78366;HTU21D;67641;59.864;30.464;2023-05-07T14:04:42;16.40;85.29
78366;HTU21D;67641;59.864;30.464;2023-05-07T14:07:09;16.30;85.74
78366;HTU21D;67641;59.864;30.464;2023-05-07T14:09:36;16.26;85.84
78366;HTU21D;67641;59.864;30.464;2023-05-07T14:12:03;16.24;86.19
78366;HTU21D;67641;59.864;30.464;2023-05-07T14:14:29;16.19;85.86
78366;HTU21D;67641;59.864;30.464;2023-05-07T14:16:57;16.08;86.12
78366;HTU21D;67641;59.864;30.464;2023-05-07T14:19:24;16.05;86.98
78366;HTU21D;67641;59.864;30.464;2023-05-07T14:21:51;16.06;86.96
78366;HTU21D;67641;59.864;30.464;2023-05-07T14:26:29;16.06;86.00
78366;HTU21D;67641;59.864;30.464;2023-05-07T14:29:00;16.03;86.08
78366;HTU21D;67641;59.864;30.464;2023-05-07T14:31:28;16.03;86.70
78366;HTU21D;67641;59.864;30.464;2023-05-07T14:33:55;16.03;85.75
78366;HTU21D;67641;59.864;30.464;2023-05-07T14:36:24;16.04;86.06
78366;HTU21D;67641;59.864;30.464;2023-05-07T14:38:52;16.05;85.20
78366;HTU21D;67641;59.864;30.464;2023-05-07T14:41:25;16.08;85.20
78366;HTU21D;67641;59.864;30.464;2023-05-07T14:43:51;16.12;84.22
78366;HTU21D;67641;59.864;30.464;2023-05-07T14:49:00;16.06;84.01
78366;HTU21D;67641;59.864;30.464;2023-05-07T14:51:27;16.10;84.22
78366;HTU21D;67641;59.864;30.464;2023-05-07T14:53:54;16.18;83.95
78366;HTU21D;67641;59.864;30.464;2023-05-07T14:56:21;16.29;84.31
78366;HTU21D;67641;59.864;30.464;2023-05-07T14:58:48;16.30;83.51
78366;HTU21D;67641;59.864;30.464;2023-05-07T15:01:15;16.33;83.57
78366;HTU21D;67641;59.864;30.464;2023-05-07T15:03:41;16.33;82.29
78366;HTU21D;67641;59.864;30.464;2023-05-07T15:06:08;16.34;83.11
78366;HTU21D;67641;59.864;30.464;2023-05-07T15:08:35;16.37;82.98
78366;HTU21D;67641;59.864;30.464;2023-05-07T15:11:27;16.33;82.24
78366;HTU21D;67641;59.864;30.464;2023-05-07T15:13:54;16.37;82.13
78366;HTU21D;67641;59.864;30.464;2023-05-07T15:16:20;16.42;82.63
78366;HTU21D;67641;59.864;30.464;2023-05-07T15:18:47;16.49;81.65
78366;HTU21D;67641;59.864;30.464;2023-05-07T15:21:14;16.50;82.87
78366;HTU21D;67641;59.864;30.464;2023-05-07T15:23:40;16.50;83.67
78366;HTU21D;67641;59.864;30.464;2023-05-07T15:26:10;16.51;83.77
78366;HTU21D;67641;59.864;30.464;2023-05-07T15:28:37;16.52;83.74
78366;HTU21D;67641;59.864;30.464;2023-05-07T15:33:49;16.47;82.88
78366;HTU21D;67641;59.864;30.464;2023-05-07T15:36:19;16.47;82.71
78366;HTU21D;67641;59.864;30.464;2023-05-07T15:38:46;16.49;83.03
78366;HTU21D;67641;59.864;30.464;2023-05-07T15:41:12;16.50;81.93
78366;HTU21D;67641;59.864;30.464;2023-05-07T15:43:45;16.60;82.70
78366;HTU21D;67641;59.864;30.464;2023-05-07T15:46:13;16.66;81.26
78366;HTU21D;67641;59.864;30.464;2023-05-07T15:48:43;16.72;81.52
78366;HTU21D;67641;59.864;30.464;2023-05-07T15:51:09;16.75;80.85
78366;HTU21D;67641;59.864;30.464;2023-05-07T15:56:14;16.66;81.23
78366;HTU21D;67641;59.864;30.464;2023-05-07T15:58:41;16.63;82.48
78366;HTU21D;67641;59.864;30.464;2023-05-07T16:01:08;16.55;82.63
78366;HTU21D;67641;59.864;30.464;2023-05-07T16:03:34;16.48;83.18
78366;HTU21D;67641;59.864;30.464;2023-05-07T16:06:01;16.36;83.87
78366;HTU21D;67641;59.864;30.464;2023-05-07T16:08:27;16.28;84.37
78366;HTU21D;67641;59.864;30.464;2023-05-07T16:10:54;16.22;84.50
78366;HTU21D;67641;59.864;30.464;2023-05-07T16:13:20;16.18;84.42
78366;HTU21D;67641;59.864;30.464;2023-05-07T16:15:51;16.17;84.19
78366;HTU21D;67641;59.864;30.464;2023-05-07T16:20:08;16.11;85.28
78366;HTU21D;67641;59.864;30.464;2023-05-07T16:22:37;16.10;84.68
78366;HTU21D;67641;59.864;30.464;2023-05-07T16:25:04;16.07;84.71
78366;HTU21D;67641;59.864;30.464;2023-05-07T16:27:30;16.07;84.34
78366;HTU21D;67641;59.864;30.464;2023-05-07T16:29:57;16.06;85.09
78366;HTU21D;67641;59.864;30.464;2023-05-07T16:32:23;16.02;85.21
78366;HTU21D;67641;59.864;30.464;2023-05-07T16:34:50;16.00;84.95
78366;HTU21D;67641;59.864;30.464;2023-05-07T16:37:16;15.97;85.27
78366;HTU21D;67641;59.864;30.464;2023-05-07T16:39:43;15.93;85.32
78366;HTU21D;67641;59.864;30.464;2023-05-07T16:42:52;15.90;85.67
78366;HTU21D;67641;59.864;30.464;2023-05-07T16:45:18;15.88;85.59
78366;HTU21D;67641;59.864;30.464;2023-05-07T16:47:45;15.87;86.29
78366;HTU21D;67641;59.864;30.464;2023-05-07T16:50:11;15.87;85.61